createdAt,value
2022-11-14T00:00:54.052Z,101214.56
2022-11-14T00:03:20.588Z,101213.16
2022-11-14T00:05:47.531Z,101213.06
2022-11-14T00:08:19.202Z,101221.09
2022-11-14T00:10:47.021Z,101218.47
2022-11-14T00:13:14.170Z,101210.28
2022-11-14T00:15:40.739Z,101210.53
2022-11-14T00:18:07.404Z,101216.25
2022-11-14T00:20:33.931Z,101217.28
2022-11-14T00:23:00.373Z,101215.63
2022-11-14T00:25:27.040Z,101208.81
2022-11-14T00:27:56.787Z,101210.28
2022-11-14T00:30:23.315Z,101211.25
2022-11-14T00:32:49.822Z,101213.69
2022-11-14T00:35:16.338Z,101207.34
2022-11-14T00:37:42.878Z,101205.97
2022-11-14T00:40:09.656Z,101205.41
2022-11-14T00:42:36.226Z,101201.41
2022-11-14T00:45:02.679Z,101201.81
2022-11-14T00:47:29.244Z,101201.19
2022-11-14T00:49:55.658Z,101202.78
2022-11-14T00:52:22.092Z,101198.66
2022-11-14T00:54:48.674Z,101192.81
2022-11-14T00:57:15.095Z,101190.81
2022-11-14T00:59:41.522Z,101188.91
2022-11-14T01:02:07.976Z,101183.69
2022-11-14T01:04:34.518Z,101178.50
2022-11-14T01:07:00.979Z,101186.16
2022-11-14T01:09:27.648Z,101186.38
2022-11-14T01:11:54.408Z,101174.59
2022-11-14T01:14:20.888Z,101173.31
2022-11-14T01:16:47.323Z,101175.97
2022-11-14T01:19:13.815Z,101173.25
2022-11-14T01:21:40.318Z,101163.91
2022-11-14T01:24:07.082Z,101159.34
2022-11-14T01:26:33.623Z,101154.41
2022-11-14T01:29:00.117Z,101164.53
2022-11-14T01:31:26.629Z,101162.31
2022-11-14T01:33:54.214Z,101157.34
2022-11-14T01:36:21.306Z,101157.84
2022-11-14T01:38:52.325Z,101158.94
2022-11-14T01:41:18.741Z,101155.78
2022-11-14T01:43:45.260Z,101152.38
2022-11-14T01:46:19.771Z,101148.88
2022-11-14T01:48:51.628Z,101143.81
2022-11-14T01:51:29.447Z,101141.03
2022-11-14T01:53:58.662Z,101138.94
2022-11-14T01:56:28.677Z,101135.53
2022-11-14T01:59:00.734Z,101132.56
2022-11-14T02:01:29.984Z,101133.41
2022-11-14T02:03:57.398Z,101130.88
2022-11-14T02:06:26.546Z,101137.44
2022-11-14T02:08:54.035Z,101137.13
2022-11-14T02:11:20.494Z,101126.88
2022-11-14T02:13:46.954Z,101131.22
2022-11-14T02:16:13.513Z,101129.06
2022-11-14T02:18:39.995Z,101124.31
2022-11-14T02:21:06.732Z,101122.63
2022-11-14T02:23:33.404Z,101121.75
2022-11-14T02:25:59.881Z,101124.00
2022-11-14T02:28:27.299Z,101124.09
2022-11-14T02:30:55.348Z,101119.03
2022-11-14T02:33:21.897Z,101112.78
2022-11-14T02:35:48.417Z,101113.19
2022-11-14T02:38:14.854Z,101109.41
2022-11-14T02:40:41.342Z,101113.94
2022-11-14T02:43:07.932Z,101106.81
2022-11-14T02:45:34.528Z,101109.19
2022-11-14T02:48:01.033Z,101109.91
2022-11-14T02:50:27.468Z,101107.16
2022-11-14T02:52:54.402Z,101103.88
2022-11-14T02:55:21.590Z,101097.94
2022-11-14T02:57:48.153Z,101095.91
2022-11-14T03:00:15.499Z,101091.06
2022-11-14T03:02:42.162Z,101094.13
2022-11-14T03:05:08.696Z,101094.91
2022-11-14T03:07:35.239Z,101092.25
2022-11-14T03:10:02.193Z,101091.50
2022-11-14T03:12:28.691Z,101093.53
2022-11-14T03:14:55.392Z,101085.78
2022-11-14T03:17:24.497Z,101087.06
2022-11-14T03:19:51.314Z,101088.75
2022-11-14T03:22:17.931Z,101079.97
2022-11-14T03:24:44.337Z,101079.13
2022-11-14T03:27:10.894Z,101075.63
2022-11-14T03:29:37.348Z,101078.69
2022-11-14T03:32:04.049Z,101079.72
2022-11-14T03:34:30.544Z,101077.09
2022-11-14T03:36:57.088Z,101077.53
2022-11-14T03:39:23.513Z,101080.50
2022-11-14T03:41:49.949Z,101072.53
2022-11-14T03:44:16.421Z,101079.00
2022-11-14T03:46:42.833Z,101073.28
2022-11-14T03:49:09.288Z,101069.06
2022-11-14T03:51:35.998Z,101068.09
2022-11-14T03:54:02.498Z,101066.09
2022-11-14T03:56:28.990Z,101066.84
2022-11-14T03:58:55.439Z,101068.63
2022-11-14T04:01:21.939Z,101066.09
2022-11-14T04:03:48.384Z,101068.00
2022-11-14T04:06:15.291Z,101062.50
2022-11-14T04:08:41.732Z,101058.25
2022-11-14T04:11:08.400Z,101058.56
2022-11-14T04:13:34.868Z,101054.97
2022-11-14T04:16:01.422Z,101052.88
2022-11-14T04:18:28.064Z,101051.47
2022-11-14T04:20:55.442Z,101056.59
2022-11-14T04:23:21.975Z,101045.16
2022-11-14T04:25:48.466Z,101050.09
2022-11-14T04:28:14.934Z,101043.88
2022-11-14T04:30:41.661Z,101050.66
2022-11-14T04:33:08.195Z,101040.72
2022-11-14T04:35:34.730Z,101040.91
2022-11-14T04:38:01.166Z,101039.53
2022-11-14T04:40:27.610Z,101033.72
2022-11-14T04:42:54.972Z,101035.94
2022-11-14T04:45:21.443Z,101040.59
2022-11-14T04:47:48.210Z,101043.66
2022-11-14T04:50:14.681Z,101038.69
2022-11-14T04:52:41.136Z,101034.88
2022-11-14T04:55:07.931Z,101032.66
2022-11-14T04:57:34.356Z,101027.56
2022-11-14T05:00:00.843Z,101028.00
2022-11-14T05:02:27.434Z,101030.13
2022-11-14T05:04:54.181Z,101031.81
2022-11-14T05:07:20.710Z,101031.81
2022-11-14T05:09:47.225Z,101032.84
2022-11-14T05:12:13.652Z,101026.09
2022-11-14T05:14:40.260Z,101027.56
2022-11-14T05:17:06.761Z,101019.88
2022-11-14T05:19:33.485Z,101021.44
2022-11-14T05:21:59.953Z,101027.25
2022-11-14T05:24:27.271Z,101028.97
2022-11-14T05:26:54.263Z,101034.34
2022-11-14T05:29:20.750Z,101026.41
2022-11-14T05:31:47.250Z,101025.25
2022-11-14T05:34:13.701Z,101017.59
2022-11-14T05:36:40.204Z,101019.97
2022-11-14T05:39:06.721Z,101025.78
2022-11-14T05:41:33.369Z,101017.50
2022-11-14T05:43:59.851Z,101019.53
2022-11-14T05:46:26.604Z,101012.66
2022-11-14T05:48:53.179Z,101020.56
2022-11-14T05:51:19.825Z,101023.34
2022-11-14T05:53:46.478Z,101022.59
2022-11-14T05:56:13.611Z,101021.44
2022-11-14T05:58:40.485Z,101027.59
2022-11-14T06:01:15.991Z,101031.91
2022-11-14T06:03:44.933Z,101024.41
2022-11-14T06:06:14.352Z,101032.66
2022-11-14T06:08:40.927Z,101028.84
2022-11-14T06:11:13.902Z,101027.25
2022-11-14T06:13:40.935Z,101033.94
2022-11-14T06:16:11.022Z,101033.72
2022-11-14T06:18:38.381Z,101034.78
2022-11-14T06:21:11.713Z,101027.03
2022-11-14T06:23:38.489Z,101031.28
2022-11-14T06:26:07.326Z,101032.25
2022-11-14T06:28:34.144Z,101033.09
2022-11-14T06:31:01.973Z,101038.47
2022-11-14T06:33:30.196Z,101037.00
2022-11-14T06:36:02.909Z,101034.66
2022-11-14T06:38:32.030Z,101042.06
2022-11-14T06:41:06.254Z,101044.09
2022-11-14T06:43:33.999Z,101047.56
2022-11-14T06:46:00.892Z,101041.22
2022-11-14T06:48:27.602Z,101035.00
2022-11-14T06:50:55.858Z,101044.09
2022-11-14T06:53:22.930Z,101046.00
2022-11-14T06:56:04.062Z,101041.13
2022-11-14T06:58:33.293Z,101047.56
2022-11-14T07:01:06.916Z,101046.22
2022-11-14T07:03:34.397Z,101046.63
2022-11-14T07:06:01.581Z,101039.22
2022-11-14T07:08:28.368Z,101050.22
2022-11-14T07:11:10.582Z,101046.81
2022-11-14T07:13:38.080Z,101040.78
2022-11-14T07:16:05.539Z,101039.53
2022-11-14T07:18:33.765Z,101039.53
2022-11-14T07:21:02.548Z,101036.78
2022-11-14T07:23:29.604Z,101040.72
2022-11-14T07:25:56.543Z,101040.69
2022-11-14T07:28:23.217Z,101041.34
2022-11-14T07:30:49.740Z,101040.16
2022-11-14T07:33:16.396Z,101030.63
2022-11-14T07:35:42.894Z,101036.47
2022-11-14T07:38:09.602Z,101032.84
2022-11-14T07:40:36.276Z,101031.41
2022-11-14T07:43:03.269Z,101028.94
2022-11-14T07:45:30.358Z,101025.88
2022-11-14T07:47:58.348Z,101032.44
2022-11-14T07:50:25.675Z,101033.41
2022-11-14T07:52:53.704Z,101032.84
2022-11-14T07:55:20.412Z,101031.19
2022-11-14T07:57:49.401Z,101029.06
2022-11-14T08:00:17.182Z,101021.00
2022-11-14T08:02:43.776Z,101026.09
2022-11-14T08:05:10.481Z,101021.97
2022-11-14T08:07:37.025Z,101026.00
2022-11-14T08:10:03.843Z,101027.88
2022-11-14T08:12:30.524Z,101019.34
2022-11-14T08:14:57.047Z,101010.66
2022-11-14T08:17:23.911Z,101017.22
2022-11-14T08:19:50.560Z,101016.47
2022-11-14T08:22:17.074Z,101014.97
2022-11-14T08:24:43.562Z,101010.25
2022-11-14T08:27:10.280Z,101010.75
2022-11-14T08:29:36.817Z,101010.88
2022-11-14T08:32:03.569Z,101007.25
2022-11-14T08:34:30.461Z,101008.28
2022-11-14T08:36:57.994Z,101003.22
2022-11-14T08:39:24.726Z,101001.53
2022-11-14T08:41:51.427Z,101002.28
2022-11-14T08:44:17.912Z,101002.47
2022-11-14T08:46:44.527Z,100998.97
2022-11-14T08:49:11.077Z,101000.09
2022-11-14T08:51:37.651Z,100993.47
2022-11-14T08:54:04.116Z,100989.44
2022-11-14T08:56:30.713Z,100986.75
2022-11-14T08:58:57.305Z,100988.41
2022-11-14T09:01:24.003Z,100994.25
2022-11-14T09:03:54.090Z,100992.53
2022-11-14T09:06:23.515Z,100988.06
2022-11-14T09:08:50.136Z,100978.66
2022-11-14T09:11:19.293Z,100981.28
2022-11-14T09:13:46.218Z,100974.94
2022-11-14T09:16:13.023Z,100972.38
2022-11-14T09:18:39.670Z,100967.81
2022-11-14T09:21:08.443Z,100962.34
2022-11-14T09:23:35.689Z,100959.06
2022-11-14T09:26:09.278Z,100968.78
2022-11-14T09:28:36.847Z,100956.63
2022-11-14T09:31:07.752Z,100956.56
2022-11-14T09:33:35.007Z,100961.22
2022-11-14T09:36:07.154Z,100962.13
2022-11-14T09:38:38.462Z,100956.63
2022-11-14T09:41:46.504Z,100956.66
2022-11-14T09:44:21.892Z,100948.38
2022-11-14T09:47:02.358Z,100945.22
2022-11-14T09:49:39.010Z,100959.00
2022-11-14T09:52:13.851Z,100956.56
2022-11-14T09:54:52.775Z,100951.44
2022-11-14T09:57:20.380Z,100952.19
2022-11-14T09:59:47.630Z,100945.44
2022-11-14T10:02:23.918Z,100949.72
2022-11-14T10:05:31.874Z,100947.13
2022-11-14T10:08:45.322Z,100946.72
2022-11-14T10:11:33.547Z,100942.03
2022-11-14T10:14:35.740Z,100947.94
2022-11-14T10:17:19.248Z,100940.94
2022-11-14T10:20:09.683Z,100937.13
2022-11-14T10:22:48.082Z,100935.06
2022-11-14T10:25:38.338Z,100933.38
2022-11-14T10:28:21.168Z,100930.63
2022-11-14T10:31:19.662Z,100920.66
2022-11-14T10:33:56.668Z,100918.13
2022-11-14T10:36:44.687Z,100919.28
2022-11-14T10:39:29.756Z,100917.38
2022-11-14T10:42:02.019Z,100916.34
2022-11-14T10:44:40.858Z,100906.94
2022-11-14T10:47:13.471Z,100905.53
2022-11-14T10:49:40.383Z,100904.69
2022-11-14T10:52:12.532Z,100903.00
2022-11-14T10:54:55.958Z,100903.47
2022-11-14T10:57:23.082Z,100898.00
2022-11-14T10:59:49.735Z,100892.38
2022-11-14T11:02:16.973Z,100892.13
2022-11-14T11:04:45.203Z,100878.22
2022-11-14T11:07:31.663Z,100878.50
2022-11-14T11:10:21.001Z,100868.72
2022-11-14T11:12:52.093Z,100867.09
2022-11-14T11:15:25.286Z,100868.41
2022-11-14T11:18:00.217Z,100855.19
2022-11-14T11:20:35.232Z,100858.97
2022-11-14T11:23:06.901Z,100851.44
2022-11-14T11:25:34.844Z,100851.78
2022-11-14T11:28:11.566Z,100849.16
2022-11-14T11:30:38.449Z,100852.59
2022-11-14T11:33:23.918Z,100840.56
2022-11-14T11:35:51.335Z,100832.13
2022-11-14T11:38:18.016Z,100840.28
2022-11-14T11:40:48.067Z,100835.16
2022-11-14T11:43:38.939Z,100836.91
2022-11-14T11:46:15.043Z,100830.63
2022-11-14T11:48:41.725Z,100826.59
2022-11-14T11:51:17.350Z,100825.34
2022-11-14T11:53:47.367Z,100824.50
2022-11-14T11:56:17.796Z,100827.88
2022-11-14T11:59:22.790Z,100821.84
2022-11-14T12:01:51.458Z,100820.56
2022-11-14T12:04:18.312Z,100812.03
2022-11-14T12:07:20.744Z,100815.44
2022-11-14T12:10:09.788Z,100808.41
2022-11-14T12:13:07.348Z,100815.06
2022-11-14T12:15:52.579Z,100808.81
2022-11-14T12:18:38.215Z,100801.03
2022-11-14T12:21:47.685Z,100806.38
2022-11-14T12:24:44.552Z,100811.84
2022-11-14T12:27:44.583Z,100807.63
2022-11-14T12:30:23.140Z,100811.16
2022-11-14T12:32:50.860Z,100813.91
2022-11-14T12:35:21.744Z,100810.78
2022-11-14T12:37:55.278Z,100813.16
2022-11-14T12:40:33.857Z,100812.63
2022-11-14T12:43:02.380Z,100812.13
2022-11-14T12:45:40.634Z,100803.69
2022-11-14T12:48:22.227Z,100809.19
2022-11-14T12:50:49.129Z,100817.66
2022-11-14T12:53:40.623Z,100820.31
2022-11-14T12:56:31.042Z,100812.19
2022-11-14T12:59:13.581Z,100810.53
2022-11-14T13:02:00.640Z,100819.72
2022-11-14T13:04:42.806Z,100816.00
2022-11-14T13:08:01.788Z,100831.63
2022-11-14T13:10:39.489Z,100811.09
2022-11-14T13:13:26.242Z,100818.56
2022-11-14T13:16:15.679Z,100809.69
2022-11-14T13:19:19.797Z,100813.59
2022-11-14T13:22:11.003Z,100809.94
2022-11-14T13:24:58.051Z,100805.22
2022-11-14T13:27:45.175Z,100799.78
2022-11-14T13:30:13.862Z,100802.94
2022-11-14T13:32:43.076Z,100802.66
2022-11-14T13:35:16.397Z,100811.19
2022-11-14T13:38:16.114Z,100799.19
2022-11-14T13:40:55.418Z,100794.53
2022-11-14T13:43:37.992Z,100798.53
2022-11-14T13:46:13.613Z,100796.88
2022-11-14T13:48:56.860Z,100794.00
2022-11-14T13:54:17.440Z,100789.59
2022-11-14T13:57:19.029Z,100798.31
2022-11-14T13:59:52.190Z,100796.63
2022-11-14T14:02:45.001Z,100781.66
2022-11-14T14:05:25.925Z,100781.22
2022-11-14T14:08:04.063Z,100786.94
2022-11-14T14:10:55.917Z,100782.91
2022-11-14T14:13:53.955Z,100777.81
2022-11-14T14:16:41.768Z,100772.84
2022-11-14T14:19:46.019Z,100765.78
2022-11-14T14:22:23.365Z,100763.25
2022-11-14T14:24:59.198Z,100753.53
2022-11-14T14:27:28.937Z,100751.53
2022-11-14T14:30:08.812Z,100758.16
2022-11-14T14:32:35.649Z,100744.91
2022-11-14T14:35:27.769Z,100741.22
2022-11-14T14:37:56.439Z,100742.88
2022-11-14T14:40:43.881Z,100744.00
2022-11-14T14:43:31.048Z,100737.84
2022-11-14T14:45:57.857Z,100731.19
2022-11-14T14:48:28.241Z,100728.88
2022-11-14T14:50:59.200Z,100720.03
2022-11-14T14:53:30.734Z,100727.09
2022-11-14T14:56:01.640Z,100724.97
2022-11-14T14:58:31.110Z,100725.94
2022-11-14T15:01:01.619Z,100716.97
2022-11-14T15:03:36.702Z,100713.28
2022-11-14T15:06:21.149Z,100721.41
2022-11-14T15:08:48.149Z,100726.50
2022-11-14T15:11:15.186Z,100725.66
2022-11-14T15:13:42.414Z,100720.97
2022-11-14T15:16:09.520Z,100720.06
2022-11-14T15:18:36.132Z,100718.06
2022-11-14T15:21:23.102Z,100709.72
2022-11-14T15:23:59.453Z,100705.38
2022-11-14T15:26:26.615Z,100711.72
2022-11-14T15:29:04.910Z,100710.56
2022-11-14T15:31:31.713Z,100708.00
2022-11-14T15:34:03.913Z,100689.25
2022-11-14T15:36:30.671Z,100697.16
2022-11-14T15:39:05.734Z,100698.97
2022-11-14T15:41:33.499Z,100690.41
2022-11-14T15:44:03.121Z,100687.47
2022-11-14T15:46:43.965Z,100688.63
2022-11-14T15:49:19.411Z,100677.09
2022-11-14T15:51:48.550Z,100676.91
2022-11-14T15:54:23.131Z,100678.69
2022-11-14T15:56:50.036Z,100680.59
2022-11-14T15:59:16.928Z,100677.31
2022-11-14T16:01:44.521Z,100667.91
2022-11-14T16:04:29.124Z,100662.13
2022-11-14T16:06:55.931Z,100673.09
2022-11-14T16:09:23.084Z,100677.31
2022-11-14T16:11:49.537Z,100670.25
2022-11-14T16:14:16.185Z,100672.47
2022-11-14T16:16:42.753Z,100666.75
2022-11-14T16:19:11.642Z,100662.50
2022-11-14T16:21:38.096Z,100668.03
2022-11-14T16:24:05.441Z,100658.09
2022-11-14T16:26:31.992Z,100665.69
2022-11-14T16:28:59.688Z,100654.09
2022-11-14T16:31:26.308Z,100645.41
2022-11-14T16:33:52.901Z,100652.28
2022-11-14T16:36:21.919Z,100642.50
2022-11-14T16:38:52.261Z,100636.47
2022-11-14T16:41:19.630Z,100641.09
2022-11-14T16:43:46.223Z,100639.53
2022-11-14T16:46:12.959Z,100636.88
2022-11-14T16:48:39.479Z,100635.78
2022-11-14T16:51:20.148Z,100637.91
2022-11-14T16:53:56.975Z,100633.69
2022-11-14T16:56:23.827Z,100639.81
2022-11-14T16:58:55.677Z,100631.25
2022-11-14T17:01:22.420Z,100636.34
2022-11-14T17:03:49.090Z,100640.75
2022-11-14T17:06:15.830Z,100634.41
2022-11-14T17:08:42.709Z,100635.50
2022-11-14T17:11:10.473Z,100635.72
2022-11-14T17:13:37.950Z,100634.75
2022-11-14T17:16:04.992Z,100634.75
2022-11-14T17:18:38.132Z,100623.22
2022-11-14T17:21:09.028Z,100618.88
2022-11-14T17:23:35.845Z,100616.47
2022-11-14T17:26:07.085Z,100613.31
2022-11-14T17:28:34.798Z,100616.38
2022-11-14T17:31:07.481Z,100603.19
2022-11-14T17:33:34.832Z,100611.78
2022-11-14T17:36:06.003Z,100604.66
2022-11-14T17:38:37.001Z,100606.00
2022-11-14T17:41:07.131Z,100591.78
2022-11-14T17:43:38.965Z,100606.19
2022-11-14T17:46:09.848Z,100600.16
2022-11-14T17:48:40.667Z,100595.13
2022-11-14T17:51:10.377Z,100591.00
2022-11-14T17:53:37.290Z,100591.59
2022-11-14T17:56:04.566Z,100593.91
2022-11-14T17:58:32.209Z,100599.44
2022-11-14T18:00:59.325Z,100600.81
2022-11-14T18:03:27.184Z,100598.56
2022-11-14T18:06:06.658Z,100593.59
2022-11-14T18:08:34.385Z,100597.63
2022-11-14T18:11:01.882Z,100584.97
2022-11-14T18:13:28.448Z,100577.16
2022-11-14T18:15:56.052Z,100579.66
2022-11-14T18:18:22.616Z,100584.63
2022-11-14T18:20:49.173Z,100588.31
2022-11-14T18:23:15.879Z,100584.09
2022-11-14T18:25:42.363Z,100580.03
2022-11-14T18:28:08.791Z,100585.19
2022-11-14T18:30:41.617Z,100576.63
2022-11-14T18:33:08.704Z,100573.03
2022-11-14T18:35:35.366Z,100565.63
2022-11-14T18:38:03.820Z,100567.28
2022-11-14T18:40:30.348Z,100559.41
2022-11-14T18:42:56.927Z,100567.75
2022-11-14T18:45:23.645Z,100559.41
2022-11-14T18:47:50.191Z,100562.56
2022-11-14T18:50:16.749Z,100560.53
2022-11-14T18:52:43.435Z,100567.72
2022-11-14T18:55:11.063Z,100566.22
2022-11-14T18:57:37.543Z,100561.84
2022-11-14T19:00:05.436Z,100546.22
2022-11-14T19:02:32.328Z,100547.28
2022-11-14T19:04:58.903Z,100547.81
2022-11-14T19:07:26.166Z,100545.81
2022-11-14T19:09:55.255Z,100547.75
2022-11-14T19:12:23.497Z,100537.81
2022-11-14T19:14:51.917Z,100540.63
2022-11-14T19:17:22.545Z,100546.75
2022-11-14T19:19:49.875Z,100545.16
2022-11-14T19:22:17.337Z,100549.16
2022-11-14T19:24:46.566Z,100537.34
2022-11-14T19:27:13.794Z,100540.53
2022-11-14T19:29:40.570Z,100526.94
2022-11-14T19:32:07.646Z,100530.44
2022-11-14T19:34:34.478Z,100522.94
2022-11-14T19:37:01.442Z,100525.34
2022-11-14T19:39:28.403Z,100512.91
2022-11-14T19:41:55.693Z,100519.88
2022-11-14T19:44:22.265Z,100512.91
2022-11-14T19:46:48.865Z,100508.81
2022-11-14T19:49:15.475Z,100516.09
2022-11-14T19:51:42.178Z,100515.97
2022-11-14T19:54:09.765Z,100515.22
2022-11-14T19:56:36.502Z,100505.25
2022-11-14T19:59:03.276Z,100505.34
2022-11-14T20:01:30.100Z,100504.94
2022-11-14T20:04:01.678Z,100494.31
2022-11-14T20:06:30.572Z,100494.09
2022-11-14T20:08:58.430Z,100490.09
2022-11-14T20:11:27.430Z,100486.94
2022-11-14T20:13:58.230Z,100495.75
2022-11-14T20:16:28.024Z,100485.81
2022-11-14T20:19:01.634Z,100482.44
2022-11-14T20:21:30.366Z,100483.66
2022-11-14T20:23:57.149Z,100482.88
2022-11-14T20:26:23.634Z,100481.66
2022-11-14T20:28:52.816Z,100477.47
2022-11-14T20:31:21.941Z,100477.69
2022-11-14T20:33:50.218Z,100480.94
2022-11-14T20:36:19.700Z,100478.41
2022-11-14T20:38:47.546Z,100473.34
2022-11-14T20:41:14.328Z,100465.34
2022-11-14T20:43:41.694Z,100455.44
2022-11-14T20:46:15.069Z,100451.34
2022-11-14T20:48:42.115Z,100446.59
2022-11-14T20:51:12.039Z,100452.28
2022-11-14T20:53:38.675Z,100445.84
2022-11-14T20:56:05.545Z,100449.59
2022-11-14T20:58:32.456Z,100440.28
2022-11-14T21:00:59.611Z,100432.34
2022-11-14T21:03:26.351Z,100426.13
2022-11-14T21:05:52.998Z,100423.38
2022-11-14T21:08:19.550Z,100422.25
2022-11-14T21:10:48.889Z,100427.31
2022-11-14T21:13:38.929Z,100422.78
2022-11-14T21:16:07.472Z,100423.63
2022-11-14T21:18:34.261Z,100420.66
2022-11-14T21:21:04.028Z,100421.56
2022-11-14T21:23:30.860Z,100423.88
2022-11-14T21:26:11.169Z,100425.94
2022-11-14T21:28:40.185Z,100426.78
2022-11-14T21:31:31.714Z,100429.94
2022-11-14T21:33:59.647Z,100417.00
2022-11-14T21:39:15.501Z,100409.53
2022-11-14T21:41:43.205Z,100415.97
2022-11-14T21:44:12.959Z,100401.13
2022-11-14T21:46:39.546Z,100400.38
2022-11-14T21:49:06.073Z,100401.66
2022-11-14T21:51:32.677Z,100405.03
2022-11-14T21:53:59.387Z,100400.78
2022-11-14T21:56:28.163Z,100402.09
2022-11-14T21:59:15.489Z,100401.78
2022-11-14T22:02:03.905Z,100398.94
2022-11-14T22:04:31.524Z,100388.75
2022-11-14T22:06:58.869Z,100384.75
2022-11-14T22:09:29.024Z,100384.47
2022-11-14T22:11:56.414Z,100389.06
2022-11-14T22:14:23.074Z,100385.06
2022-11-14T22:16:49.631Z,100386.25
2022-11-14T22:19:16.051Z,100377.34
2022-11-14T22:21:42.562Z,100384.16
2022-11-14T22:24:09.022Z,100390.56
2022-11-14T22:26:39.723Z,100382.22
2022-11-14T22:29:07.329Z,100379.69
2022-11-14T22:31:33.798Z,100376.03
2022-11-14T22:34:00.286Z,100364.50
2022-11-14T22:36:27.309Z,100366.81
2022-11-14T22:38:55.789Z,100379.75
2022-11-14T22:41:29.124Z,100363.56
2022-11-14T22:43:58.525Z,100367.78
2022-11-14T22:46:25.480Z,100358.25
2022-11-14T22:48:51.936Z,100362.53
2022-11-14T22:51:23.043Z,100357.19
2022-11-14T22:53:51.637Z,100360.13
2022-11-14T22:56:19.818Z,100352.72
2022-11-14T22:58:46.670Z,100358.16
2022-11-14T23:01:21.669Z,100342.94
2022-11-14T23:03:48.668Z,100345.91
2022-11-14T23:06:17.177Z,100348.44
2022-11-14T23:08:44.082Z,100342.91
2022-11-14T23:11:13.834Z,100340.66
2022-11-14T23:13:48.279Z,100340.44
2022-11-14T23:16:17.427Z,100343.41
2022-11-14T23:18:44.501Z,100327.41
2022-11-14T23:21:19.659Z,100328.91
2022-11-14T23:23:46.320Z,100341.25
2022-11-14T23:26:15.744Z,100322.38
2022-11-14T23:28:42.498Z,100323.53
2022-11-14T23:31:10.246Z,100324.47
2022-11-14T23:33:36.732Z,100317.41
2022-11-14T23:36:03.470Z,100314.94
2022-11-14T23:38:30.955Z,100322.81
2022-11-14T23:40:59.006Z,100328.16
2022-11-14T23:43:25.777Z,100324.06
2022-11-14T23:45:52.388Z,100319.97
2022-11-14T23:48:20.043Z,100316.09
2022-11-14T23:50:50.407Z,100311.78
2022-11-14T23:53:17.103Z,100309.34
2022-11-14T23:55:43.588Z,100309.16
2022-11-14T23:58:10.063Z,100301.44
